sensor_id;sensor_type;location;lat;lon;timestamp;temperature;humidity
32394;DHT22;18853;45.426;9.206;2022-07-30T00:02:02;28.00;57.30
32394;DHT22;18853;45.426;9.206;2022-07-30T00:04:28;28.00;57.60
32394;DHT22;18853;45.426;9.206;2022-07-30T00:06:54;28.00;57.70
32394;DHT22;18853;45.426;9.206;2022-07-30T00:09:19;27.90;57.70
32394;DHT22;18853;45.426;9.206;2022-07-30T00:11:45;27.90;57.70
32394;DHT22;18853;45.426;9.206;2022-07-30T00:14:10;27.80;58.10
32394;DHT22;18853;45.426;9.206;2022-07-30T00:16:36;27.80;58.20
32394;DHT22;18853;45.426;9.206;2022-07-30T00:19:02;27.90;58.20
32394;DHT22;18853;45.426;9.206;2022-07-30T00:21:28;28.00;57.80
32394;DHT22;18853;45.426;9.206;2022-07-30T00:23:54;28.10;57.60
32394;DHT22;18853;45.426;9.206;2022-07-30T00:26:20;28.00;57.50
32394;DHT22;18853;45.426;9.206;2022-07-30T00:28:45;27.90;57.90
32394;DHT22;18853;45.426;9.206;2022-07-30T00:31:11;27.90;57.90
32394;DHT22;18853;45.426;9.206;2022-07-30T00:33:36;27.80;57.90
32394;DHT22;18853;45.426;9.206;2022-07-30T00:36:02;27.70;58.00
32394;DHT22;18853;45.426;9.206;2022-07-30T00:38:28;27.70;58.30
32394;DHT22;18853;45.426;9.206;2022-07-30T00:40:53;27.60;58.40
32394;DHT22;18853;45.426;9.206;2022-07-30T00:43:19;27.60;58.40
32394;DHT22;18853;45.426;9.206;2022-07-30T00:45:45;27.50;59.10
32394;DHT22;18853;45.426;9.206;2022-07-30T00:48:13;27.50;58.50
32394;DHT22;18853;45.426;9.206;2022-07-30T00:50:39;27.50;58.40
32394;DHT22;18853;45.426;9.206;2022-07-30T00:53:06;27.40;58.40
32394;DHT22;18853;45.426;9.206;2022-07-30T00:55:32;27.40;58.30
32394;DHT22;18853;45.426;9.206;2022-07-30T00:57:58;27.40;58.40
32394;DHT22;18853;45.426;9.206;2022-07-30T01:00:24;27.30;58.30
32394;DHT22;18853;45.426;9.206;2022-07-30T01:02:50;27.30;58.40
32394;DHT22;18853;45.426;9.206;2022-07-30T01:05:15;27.30;58.40
32394;DHT22;18853;45.426;9.206;2022-07-30T01:07:41;27.30;58.40
32394;DHT22;18853;45.426;9.206;2022-07-30T01:10:09;27.30;58.60
32394;DHT22;18853;45.426;9.206;2022-07-30T01:12:36;27.20;58.50
32394;DHT22;18853;45.426;9.206;2022-07-30T01:15:03;27.20;58.70
32394;DHT22;18853;45.426;9.206;2022-07-30T01:17:29;27.30;58.80
32394;DHT22;18853;45.426;9.206;2022-07-30T01:19:59;27.50;58.40
32394;DHT22;18853;45.426;9.206;2022-07-30T01:25:26;27.50;58.10
32394;DHT22;18853;45.426;9.206;2022-07-30T01:28:10;27.50;58.20
32394;DHT22;18853;45.426;9.206;2022-07-30T01:30:41;27.40;58.00
32394;DHT22;18853;45.426;9.206;2022-07-30T01:33:14;27.30;58.10
32394;DHT22;18853;45.426;9.206;2022-07-30T01:35:44;27.40;58.30
32394;DHT22;18853;45.426;9.206;2022-07-30T01:38:11;27.50;57.90
32394;DHT22;18853;45.426;9.206;2022-07-30T01:40:38;27.60;58.00
32394;DHT22;18853;45.426;9.206;2022-07-30T01:43:07;27.60;57.70
32394;DHT22;18853;45.426;9.206;2022-07-30T01:45:34;27.60;57.60
32394;DHT22;18853;45.426;9.206;2022-07-30T01:48:02;27.70;57.50
32394;DHT22;18853;45.426;9.206;2022-07-30T01:50:30;27.80;57.00
32394;DHT22;18853;45.426;9.206;2022-07-30T01:52:56;27.90;57.10
32394;DHT22;18853;45.426;9.206;2022-07-30T01:55:38;27.90;56.70
32394;DHT22;18853;45.426;9.206;2022-07-30T01:58:05;28.00;56.40
32394;DHT22;18853;45.426;9.206;2022-07-30T02:00:35;28.00;56.40
32394;DHT22;18853;45.426;9.206;2022-07-30T02:03:03;27.90;56.40
32394;DHT22;18853;45.426;9.206;2022-07-30T02:05:31;27.80;56.40
32394;DHT22;18853;45.426;9.206;2022-07-30T02:10:50;27.60;56.80
32394;DHT22;18853;45.426;9.206;2022-07-30T02:13:19;27.50;56.90
32394;DHT22;18853;45.426;9.206;2022-07-30T02:18:26;27.30;57.10
32394;DHT22;18853;45.426;9.206;2022-07-30T02:21:02;27.20;57.40
32394;DHT22;18853;45.426;9.206;2022-07-30T02:23:30;27.20;57.80
32394;DHT22;18853;45.426;9.206;2022-07-30T02:25:59;27.30;57.70
32394;DHT22;18853;45.426;9.206;2022-07-30T02:28:26;27.30;57.40
32394;DHT22;18853;45.426;9.206;2022-07-30T02:30:58;27.50;57.10
32394;DHT22;18853;45.426;9.206;2022-07-30T02:33:28;27.60;57.00
32394;DHT22;18853;45.426;9.206;2022-07-30T02:35:55;27.70;56.80
32394;DHT22;18853;45.426;9.206;2022-07-30T02:38:22;27.70;56.60
32394;DHT22;18853;45.426;9.206;2022-07-30T02:40:49;27.60;56.30
32394;DHT22;18853;45.426;9.206;2022-07-30T02:43:16;27.60;56.70
32394;DHT22;18853;45.426;9.206;2022-07-30T02:45:43;27.50;56.70
32394;DHT22;18853;45.426;9.206;2022-07-30T02:48:12;27.50;56.90
32394;DHT22;18853;45.426;9.206;2022-07-30T02:50:38;27.30;57.10
32394;DHT22;18853;45.426;9.206;2022-07-30T02:53:08;27.30;57.50
32394;DHT22;18853;45.426;9.206;2022-07-30T02:55:37;27.20;57.60
32394;DHT22;18853;45.426;9.206;2022-07-30T02:58:05;27.10;57.70
32394;DHT22;18853;45.426;9.206;2022-07-30T03:00:31;27.00;58.00
32394;DHT22;18853;45.426;9.206;2022-07-30T03:03:01;26.90;58.30
32394;DHT22;18853;45.426;9.206;2022-07-30T03:05:29;26.90;58.50
32394;DHT22;18853;45.426;9.206;2022-07-30T03:07:56;26.80;58.50
32394;DHT22;18853;45.426;9.206;2022-07-30T03:10:24;26.80;58.70
32394;DHT22;18853;45.426;9.206;2022-07-30T03:12:50;26.80;58.70
32394;DHT22;18853;45.426;9.206;2022-07-30T03:15:17;26.80;58.70
32394;DHT22;18853;45.426;9.206;2022-07-30T03:17:45;26.80;58.70
32394;DHT22;18853;45.426;9.206;2022-07-30T03:20:16;26.70;58.90
32394;DHT22;18853;45.426;9.206;2022-07-30T03:22:44;26.70;58.80
32394;DHT22;18853;45.426;9.206;2022-07-30T03:25:14;26.80;58.70
32394;DHT22;18853;45.426;9.206;2022-07-30T03:27:42;26.90;58.60
32394;DHT22;18853;45.426;9.206;2022-07-30T03:30:09;26.80;58.50
32394;DHT22;18853;45.426;9.206;2022-07-30T03:32:35;26.80;58.80
32394;DHT22;18853;45.426;9.206;2022-07-30T03:35:02;26.70;58.80
32394;DHT22;18853;45.426;9.206;2022-07-30T03:37:29;26.70;58.90
32394;DHT22;18853;45.426;9.206;2022-07-30T03:39:55;26.60;59.00
32394;DHT22;18853;45.426;9.206;2022-07-30T03:42:23;26.60;59.00
32394;DHT22;18853;45.426;9.206;2022-07-30T03:44:49;26.50;59.80
32394;DHT22;18853;45.426;9.206;2022-07-30T03:47:15;26.50;59.90
32394;DHT22;18853;45.426;9.206;2022-07-30T03:49:42;26.40;59.50
32394;DHT22;18853;45.426;9.206;2022-07-30T03:52:07;26.40;59.50
32394;DHT22;18853;45.426;9.206;2022-07-30T03:54:34;26.30;59.70
32394;DHT22;18853;45.426;9.206;2022-07-30T03:57:01;26.30;59.70
32394;DHT22;18853;45.426;9.206;2022-07-30T03:59:27;26.30;60.00
32394;DHT22;18853;45.426;9.206;2022-07-30T04:01:53;26.40;59.70
32394;DHT22;18853;45.426;9.206;2022-07-30T04:04:19;26.70;59.30
32394;DHT22;18853;45.426;9.206;2022-07-30T04:06:45;26.80;58.80
32394;DHT22;18853;45.426;9.206;2022-07-30T04:09:11;27.10;58.20
32394;DHT22;18853;45.426;9.206;2022-07-30T04:11:38;27.00;57.60
32394;DHT22;18853;45.426;9.206;2022-07-30T04:14:03;27.00;57.60
32394;DHT22;18853;45.426;9.206;2022-07-30T04:16:58;27.00;57.90
32394;DHT22;18853;45.426;9.206;2022-07-30T04:19:30;27.10;57.70
32394;DHT22;18853;45.426;9.206;2022-07-30T04:21:56;27.00;58.20
32394;DHT22;18853;45.426;9.206;2022-07-30T04:24:26;27.00;57.90
32394;DHT22;18853;45.426;9.206;2022-07-30T04:26:52;27.10;57.60
32394;DHT22;18853;45.426;9.206;2022-07-30T04:29:18;27.20;57.50
32394;DHT22;18853;45.426;9.206;2022-07-30T04:31:44;27.30;57.00
32394;DHT22;18853;45.426;9.206;2022-07-30T04:34:14;27.40;56.90
32394;DHT22;18853;45.426;9.206;2022-07-30T04:36:40;27.30;57.00
32394;DHT22;18853;45.426;9.206;2022-07-30T04:39:06;27.10;57.30
32394;DHT22;18853;45.426;9.206;2022-07-30T04:41:32;27.00;58.20
32394;DHT22;18853;45.426;9.206;2022-07-30T04:43:58;26.90;58.00
32394;DHT22;18853;45.426;9.206;2022-07-30T04:46:23;26.70;58.10
32394;DHT22;18853;45.426;9.206;2022-07-30T04:48:49;26.70;58.30
32394;DHT22;18853;45.426;9.206;2022-07-30T04:51:33;26.70;58.40
32394;DHT22;18853;45.426;9.206;2022-07-30T04:54:02;26.70;58.50
32394;DHT22;18853;45.426;9.206;2022-07-30T04:56:30;26.60;58.60
32394;DHT22;18853;45.426;9.206;2022-07-30T04:58:58;26.50;58.60
32394;DHT22;18853;45.426;9.206;2022-07-30T05:01:28;26.50;58.90
32394;DHT22;18853;45.426;9.206;2022-07-30T05:03:57;26.50;58.90
32394;DHT22;18853;45.426;9.206;2022-07-30T05:06:24;26.50;59.00
32394;DHT22;18853;45.426;9.206;2022-07-30T05:08:50;26.60;58.90
32394;DHT22;18853;45.426;9.206;2022-07-30T05:11:16;26.50;58.70
32394;DHT22;18853;45.426;9.206;2022-07-30T05:13:43;26.50;58.70
32394;DHT22;18853;45.426;9.206;2022-07-30T05:16:09;26.40;58.90
32394;DHT22;18853;45.426;9.206;2022-07-30T05:18:36;26.30;59.10
32394;DHT22;18853;45.426;9.206;2022-07-30T05:21:03;26.40;59.30
32394;DHT22;18853;45.426;9.206;2022-07-30T05:23:29;26.40;59.20
32394;DHT22;18853;45.426;9.206;2022-07-30T05:25:54;26.40;59.10
32394;DHT22;18853;45.426;9.206;2022-07-30T05:28:20;26.40;59.10
32394;DHT22;18853;45.426;9.206;2022-07-30T05:30:47;26.40;59.10
32394;DHT22;18853;45.426;9.206;2022-07-30T05:33:12;26.40;59.10
32394;DHT22;18853;45.426;9.206;2022-07-30T05:35:38;26.40;59.40
32394;DHT22;18853;45.426;9.206;2022-07-30T05:38:04;26.40;59.40
32394;DHT22;18853;45.426;9.206;2022-07-30T05:40:29;26.50;59.20
32394;DHT22;18853;45.426;9.206;2022-07-30T05:42:55;26.60;59.20
32394;DHT22;18853;45.426;9.206;2022-07-30T05:45:20;26.70;58.80
32394;DHT22;18853;45.426;9.206;2022-07-30T05:47:46;26.70;59.30
32394;DHT22;18853;45.426;9.206;2022-07-30T05:50:12;26.90;58.50
32394;DHT22;18853;45.426;9.206;2022-07-30T05:52:38;26.90;58.30
32394;DHT22;18853;45.426;9.206;2022-07-30T05:55:04;27.00;57.90
32394;DHT22;18853;45.426;9.206;2022-07-30T05:57:30;27.10;57.80
32394;DHT22;18853;45.426;9.206;2022-07-30T05:59:55;27.20;57.70
32394;DHT22;18853;45.426;9.206;2022-07-30T06:02:21;27.20;57.70
32394;DHT22;18853;45.426;9.206;2022-07-30T06:04:48;27.30;57.50
32394;DHT22;18853;45.426;9.206;2022-07-30T06:07:14;27.30;56.90
32394;DHT22;18853;45.426;9.206;2022-07-30T06:09:39;27.20;57.10
32394;DHT22;18853;45.426;9.206;2022-07-30T06:12:05;27.10;57.30
32394;DHT22;18853;45.426;9.206;2022-07-30T06:14:31;27.00;57.60
32394;DHT22;18853;45.426;9.206;2022-07-30T06:16:56;26.90;57.60
32394;DHT22;18853;45.426;9.206;2022-07-30T06:19:22;26.80;57.60
32394;DHT22;18853;45.426;9.206;2022-07-30T06:21:48;26.70;58.00
32394;DHT22;18853;45.426;9.206;2022-07-30T06:24:13;26.70;58.10
32394;DHT22;18853;45.426;9.206;2022-07-30T06:26:39;26.50;58.40
32394;DHT22;18853;45.426;9.206;2022-07-30T06:29:05;26.50;58.60
32394;DHT22;18853;45.426;9.206;2022-07-30T06:31:30;26.50;58.90
32394;DHT22;18853;45.426;9.206;2022-07-30T06:33:56;26.40;58.90
32394;DHT22;18853;45.426;9.206;2022-07-30T06:36:22;26.40;58.90
32394;DHT22;18853;45.426;9.206;2022-07-30T06:38:47;26.30;58.80
32394;DHT22;18853;45.426;9.206;2022-07-30T06:41:13;26.30;59.10
32394;DHT22;18853;45.426;9.206;2022-07-30T06:43:40;26.30;59.10
32394;DHT22;18853;45.426;9.206;2022-07-30T06:46:05;26.30;59.90
32394;DHT22;18853;45.426;9.206;2022-07-30T06:48:31;26.20;59.30
32394;DHT22;18853;45.426;9.206;2022-07-30T06:50:56;26.30;59.50
32394;DHT22;18853;45.426;9.206;2022-07-30T06:53:22;26.30;59.20
32394;DHT22;18853;45.426;9.206;2022-07-30T06:55:48;26.30;59.10
32394;DHT22;18853;45.426;9.206;2022-07-30T06:58:15;26.30;58.90
32394;DHT22;18853;45.426;9.206;2022-07-30T07:00:41;26.30;59.00
32394;DHT22;18853;45.426;9.206;2022-07-30T07:03:09;26.30;59.10
32394;DHT22;18853;45.426;9.206;2022-07-30T07:05:35;26.30;59.10
32394;DHT22;18853;45.426;9.206;2022-07-30T07:08:00;26.30;59.10
32394;DHT22;18853;45.426;9.206;2022-07-30T07:10:26;26.30;59.20
32394;DHT22;18853;45.426;9.206;2022-07-30T07:12:52;26.30;58.90
32394;DHT22;18853;45.426;9.206;2022-07-30T07:15:18;26.30;58.90
32394;DHT22;18853;45.426;9.206;2022-07-30T07:17:44;26.20;58.90
32394;DHT22;18853;45.426;9.206;2022-07-30T07:20:10;26.20;58.90
32394;DHT22;18853;45.426;9.206;2022-07-30T07:22:35;26.20;59.00
32394;DHT22;18853;45.426;9.206;2022-07-30T07:25:01;26.10;58.60
32394;DHT22;18853;45.426;9.206;2022-07-30T07:27:27;26.20;58.70
32394;DHT22;18853;45.426;9.206;2022-07-30T07:29:53;26.20;58.60
32394;DHT22;18853;45.426;9.206;2022-07-30T07:32:18;26.30;58.40
32394;DHT22;18853;45.426;9.206;2022-07-30T07:34:44;26.40;58.30
32394;DHT22;18853;45.426;9.206;2022-07-30T07:37:10;26.30;58.20
32394;DHT22;18853;45.426;9.206;2022-07-30T07:39:35;26.30;58.10
32394;DHT22;18853;45.426;9.206;2022-07-30T07:42:03;26.20;58.10
32394;DHT22;18853;45.426;9.206;2022-07-30T07:44:28;26.10;58.50
32394;DHT22;18853;45.426;9.206;2022-07-30T07:46:54;26.20;58.60
32394;DHT22;18853;45.426;9.206;2022-07-30T07:49:20;26.20;58.90
32394;DHT22;18853;45.426;9.206;2022-07-30T07:51:45;26.20;59.10
32394;DHT22;18853;45.426;9.206;2022-07-30T07:54:11;26.30;59.30
32394;DHT22;18853;45.426;9.206;2022-07-30T07:56:36;26.30;59.40
32394;DHT22;18853;45.426;9.206;2022-07-30T07:59:02;26.30;59.10
32394;DHT22;18853;45.426;9.206;2022-07-30T08:01:28;26.30;59.30
32394;DHT22;18853;45.426;9.206;2022-07-30T08:03:53;26.30;59.30
32394;DHT22;18853;45.426;9.206;2022-07-30T08:06:19;26.30;59.20
32394;DHT22;18853;45.426;9.206;2022-07-30T08:08:44;26.30;59.10
32394;DHT22;18853;45.426;9.206;2022-07-30T08:11:10;26.30;59.20
32394;DHT22;18853;45.426;9.206;2022-07-30T08:13:36;26.40;59.00
32394;DHT22;18853;45.426;9.206;2022-07-30T08:16:02;26.40;58.80
32394;DHT22;18853;45.426;9.206;2022-07-30T08:18:27;26.50;58.30
32394;DHT22;18853;45.426;9.206;2022-07-30T08:20:53;26.50;58.60
32394;DHT22;18853;45.426;9.206;2022-07-30T08:23:19;26.50;58.60
32394;DHT22;18853;45.426;9.206;2022-07-30T08:25:47;26.50;58.30
32394;DHT22;18853;45.426;9.206;2022-07-30T08:28:13;26.50;58.30
32394;DHT22;18853;45.426;9.206;2022-07-30T08:30:39;26.60;58.30
32394;DHT22;18853;45.426;9.206;2022-07-30T08:33:04;26.60;58.40
32394;DHT22;18853;45.426;9.206;2022-07-30T08:35:30;26.70;58.30
32394;DHT22;18853;45.426;9.206;2022-07-30T08:37:56;26.70;57.90
32394;DHT22;18853;45.426;9.206;2022-07-30T08:40:25;26.70;57.60
32394;DHT22;18853;45.426;9.206;2022-07-30T08:42:52;26.70;57.60
32394;DHT22;18853;45.426;9.206;2022-07-30T08:45:18;26.80;57.40
32394;DHT22;18853;45.426;9.206;2022-07-30T08:47:45;26.80;57.20
32394;DHT22;18853;45.426;9.206;2022-07-30T08:50:11;26.90;56.70
32394;DHT22;18853;45.426;9.206;2022-07-30T08:52:39;27.00;56.80
32394;DHT22;18853;45.426;9.206;2022-07-30T08:55:05;27.00;56.50
32394;DHT22;18853;45.426;9.206;2022-07-30T08:57:32;27.00;56.20
32394;DHT22;18853;45.426;9.206;2022-07-30T08:59:58;27.10;56.00
32394;DHT22;18853;45.426;9.206;2022-07-30T09:02:24;27.10;55.70
32394;DHT22;18853;45.426;9.206;2022-07-30T09:04:50;27.10;54.30
32394;DHT22;18853;45.426;9.206;2022-07-30T09:07:16;27.10;54.90
32394;DHT22;18853;45.426;9.206;2022-07-30T09:09:42;27.20;55.40
32394;DHT22;18853;45.426;9.206;2022-07-30T09:20:09;27.20;54.10
32394;DHT22;18853;45.426;9.206;2022-07-30T09:22:43;27.20;54.70
32394;DHT22;18853;45.426;9.206;2022-07-30T09:25:09;27.30;54.60
32394;DHT22;18853;45.426;9.206;2022-07-30T09:27:55;27.30;54.70
32394;DHT22;18853;45.426;9.206;2022-07-30T09:30:21;27.30;54.80
32394;DHT22;18853;45.426;9.206;2022-07-30T09:35:13;27.20;55.30
32394;DHT22;18853;45.426;9.206;2022-07-30T09:37:39;27.30;54.20
32394;DHT22;18853;45.426;9.206;2022-07-30T09:40:15;27.40;54.30
32394;DHT22;18853;45.426;9.206;2022-07-30T09:42:42;27.50;54.20
32394;DHT22;18853;45.426;9.206;2022-07-30T09:45:12;27.50;53.30
32394;DHT22;18853;45.426;9.206;2022-07-30T09:47:41;27.60;52.50
32394;DHT22;18853;45.426;9.206;2022-07-30T09:50:15;27.60;51.90
32394;DHT22;18853;45.426;9.206;2022-07-30T09:52:43;27.60;52.30
32394;DHT22;18853;45.426;9.206;2022-07-30T09:55:10;27.70;52.00
32394;DHT22;18853;45.426;9.206;2022-07-30T09:57:53;27.70;51.70
32394;DHT22;18853;45.426;9.206;2022-07-30T10:00:21;27.90;53.70
32394;DHT22;18853;45.426;9.206;2022-07-30T10:02:48;27.90;54.00
32394;DHT22;18853;45.426;9.206;2022-07-30T10:05:15;27.90;53.90
32394;DHT22;18853;45.426;9.206;2022-07-30T10:07:53;27.90;54.00
32394;DHT22;18853;45.426;9.206;2022-07-30T10:10:22;28.00;54.30
32394;DHT22;18853;45.426;9.206;2022-07-30T10:12:52;28.00;53.90
32394;DHT22;18853;45.426;9.206;2022-07-30T10:15:19;28.10;55.30
32394;DHT22;18853;45.426;9.206;2022-07-30T10:17:46;28.10;55.00
32394;DHT22;18853;45.426;9.206;2022-07-30T10:20:13;28.10;55.00
32394;DHT22;18853;45.426;9.206;2022-07-30T10:22:40;28.10;55.00
32394;DHT22;18853;45.426;9.206;2022-07-30T10:25:07;28.10;55.00
32394;DHT22;18853;45.426;9.206;2022-07-30T10:27:33;28.10;55.00
32394;DHT22;18853;45.426;9.206;2022-07-30T10:30:00;28.10;55.30
32394;DHT22;18853;45.426;9.206;2022-07-30T10:32:27;28.10;55.50
32394;DHT22;18853;45.426;9.206;2022-07-30T10:34:53;28.20;55.70
32394;DHT22;18853;45.426;9.206;2022-07-30T10:37:19;28.30;55.60
32394;DHT22;18853;45.426;9.206;2022-07-30T10:39:52;28.30;54.40
32394;DHT22;18853;45.426;9.206;2022-07-30T10:47:52;28.40;53.50
32394;DHT22;18853;45.426;9.206;2022-07-30T10:50:21;28.40;53.40
32394;DHT22;18853;45.426;9.206;2022-07-30T10:52:59;28.50;54.00
32394;DHT22;18853;45.426;9.206;2022-07-30T10:55:30;28.50;52.90
32394;DHT22;18853;45.426;9.206;2022-07-30T10:58:12;28.50;53.10
32394;DHT22;18853;45.426;9.206;2022-07-30T11:05:46;28.60;53.20
32394;DHT22;18853;45.426;9.206;2022-07-30T11:08:32;28.70;53.30
32394;DHT22;18853;45.426;9.206;2022-07-30T11:10:59;28.70;52.50
32394;DHT22;18853;45.426;9.206;2022-07-30T11:13:53;28.70;52.50
32394;DHT22;18853;45.426;9.206;2022-07-30T11:19:14;28.70;52.20
32394;DHT22;18853;45.426;9.206;2022-07-30T11:21:45;28.80;51.50
32394;DHT22;18853;45.426;9.206;2022-07-30T11:24:45;28.80;51.60
32394;DHT22;18853;45.426;9.206;2022-07-30T11:29:58;29.00;51.60
32394;DHT22;18853;45.426;9.206;2022-07-30T11:32:27;29.00;52.80
32394;DHT22;18853;45.426;9.206;2022-07-30T11:45:45;29.20;53.60
32394;DHT22;18853;45.426;9.206;2022-07-30T11:48:14;29.30;53.50
32394;DHT22;18853;45.426;9.206;2022-07-30T11:50:41;29.40;54.10
32394;DHT22;18853;45.426;9.206;2022-07-30T11:53:09;29.50;53.70
32394;DHT22;18853;45.426;9.206;2022-07-30T11:55:40;29.60;53.90
32394;DHT22;18853;45.426;9.206;2022-07-30T11:58:23;29.70;53.80
32394;DHT22;18853;45.426;9.206;2022-07-30T12:00:49;29.90;52.60
32394;DHT22;18853;45.426;9.206;2022-07-30T12:03:20;29.90;52.00
32394;DHT22;18853;45.426;9.206;2022-07-30T12:05:47;30.00;52.00
32394;DHT22;18853;45.426;9.206;2022-07-30T12:08:13;30.00;52.30
32394;DHT22;18853;45.426;9.206;2022-07-30T12:10:42;30.10;52.00
32394;DHT22;18853;45.426;9.206;2022-07-30T12:13:12;30.20;51.90
32394;DHT22;18853;45.426;9.206;2022-07-30T12:15:43;30.30;50.90
32394;DHT22;18853;45.426;9.206;2022-07-30T12:18:09;30.20;51.00
32394;DHT22;18853;45.426;9.206;2022-07-30T12:20:39;30.30;51.00
32394;DHT22;18853;45.426;9.206;2022-07-30T12:23:12;30.30;51.10
32394;DHT22;18853;45.426;9.206;2022-07-30T12:25:39;30.40;51.00
32394;DHT22;18853;45.426;9.206;2022-07-30T12:28:06;30.40;50.00
32394;DHT22;18853;45.426;9.206;2022-07-30T12:30:32;30.50;49.90
32394;DHT22;18853;45.426;9.206;2022-07-30T12:32:58;30.50;49.40
32394;DHT22;18853;45.426;9.206;2022-07-30T12:35:50;30.60;49.40
32394;DHT22;18853;45.426;9.206;2022-07-30T12:38:17;30.90;48.10
32394;DHT22;18853;45.426;9.206;2022-07-30T12:40:58;30.90;48.50
32394;DHT22;18853;45.426;9.206;2022-07-30T12:46:16;31.00;47.80
32394;DHT22;18853;45.426;9.206;2022-07-30T12:51:18;31.20;47.80
32394;DHT22;18853;45.426;9.206;2022-07-30T12:53:44;31.30;48.50
32394;DHT22;18853;45.426;9.206;2022-07-30T12:56:21;31.40;48.60
32394;DHT22;18853;45.426;9.206;2022-07-30T12:58:47;31.60;48.80
32394;DHT22;18853;45.426;9.206;2022-07-30T13:01:14;31.70;47.90
32394;DHT22;18853;45.426;9.206;2022-07-30T13:03:40;31.70;47.50
32394;DHT22;18853;45.426;9.206;2022-07-30T13:06:17;31.70;47.90
32394;DHT22;18853;45.426;9.206;2022-07-30T13:11:13;31.80;47.40
32394;DHT22;18853;45.426;9.206;2022-07-30T13:13:38;31.90;47.30
32394;DHT22;18853;45.426;9.206;2022-07-30T13:16:06;31.90;46.90
32394;DHT22;18853;45.426;9.206;2022-07-30T13:18:34;32.00;46.90
32394;DHT22;18853;45.426;9.206;2022-07-30T13:21:02;32.00;46.30
32394;DHT22;18853;45.426;9.206;2022-07-30T13:23:28;32.00;46.60
32394;DHT22;18853;45.426;9.206;2022-07-30T13:25:55;32.10;46.40
32394;DHT22;18853;45.426;9.206;2022-07-30T13:28:21;32.10;46.40
32394;DHT22;18853;45.426;9.206;2022-07-30T13:30:47;32.20;46.40
32394;DHT22;18853;45.426;9.206;2022-07-30T13:33:13;32.20;46.20
32394;DHT22;18853;45.426;9.206;2022-07-30T13:35:39;32.20;46.00
32394;DHT22;18853;45.426;9.206;2022-07-30T13:38:05;32.20;45.60
32394;DHT22;18853;45.426;9.206;2022-07-30T13:40:31;32.30;45.30
32394;DHT22;18853;45.426;9.206;2022-07-30T13:42:58;32.30;45.90
32394;DHT22;18853;45.426;9.206;2022-07-30T13:45:24;32.50;45.50
32394;DHT22;18853;45.426;9.206;2022-07-30T13:47:50;32.60;45.50
32394;DHT22;18853;45.426;9.206;2022-07-30T13:50:15;32.60;44.80
32394;DHT22;18853;45.426;9.206;2022-07-30T13:52:41;32.60;44.70
32394;DHT22;18853;45.426;9.206;2022-07-30T13:55:07;32.60;44.70
32394;DHT22;18853;45.426;9.206;2022-07-30T13:57:32;32.70;45.20
32394;DHT22;18853;45.426;9.206;2022-07-30T13:59:58;32.80;44.60
32394;DHT22;18853;45.426;9.206;2022-07-30T14:02:24;32.90;44.30
32394;DHT22;18853;45.426;9.206;2022-07-30T14:04:49;33.10;43.60
32394;DHT22;18853;45.426;9.206;2022-07-30T14:07:15;33.10;43.60
32394;DHT22;18853;45.426;9.206;2022-07-30T14:09:40;33.20;43.70
32394;DHT22;18853;45.426;9.206;2022-07-30T14:12:06;33.30;43.80
32394;DHT22;18853;45.426;9.206;2022-07-30T14:14:32;33.40;43.70
32394;DHT22;18853;45.426;9.206;2022-07-30T14:16:58;33.50;43.90
32394;DHT22;18853;45.426;9.206;2022-07-30T14:19:23;33.60;42.30
32394;DHT22;18853;45.426;9.206;2022-07-30T14:21:50;33.60;41.70
32394;DHT22;18853;45.426;9.206;2022-07-30T14:24:16;33.60;42.00
32394;DHT22;18853;45.426;9.206;2022-07-30T14:26:42;33.50;41.60
32394;DHT22;18853;45.426;9.206;2022-07-30T14:29:08;33.60;42.30
32394;DHT22;18853;45.426;9.206;2022-07-30T14:31:34;33.70;41.70
32394;DHT22;18853;45.426;9.206;2022-07-30T14:34:00;33.80;41.70
32394;DHT22;18853;45.426;9.206;2022-07-30T14:36:26;33.90;41.90
32394;DHT22;18853;45.426;9.206;2022-07-30T14:38:56;33.90;42.00
32394;DHT22;18853;45.426;9.206;2022-07-30T14:41:22;34.00;41.70
32394;DHT22;18853;45.426;9.206;2022-07-30T14:43:48;34.10;41.30
32394;DHT22;18853;45.426;9.206;2022-07-30T14:46:13;34.10;41.10
32394;DHT22;18853;45.426;9.206;2022-07-30T14:48:39;34.20;41.20
32394;DHT22;18853;45.426;9.206;2022-07-30T14:51:05;34.30;41.30
32394;DHT22;18853;45.426;9.206;2022-07-30T14:53:30;34.30;40.50
32394;DHT22;18853;45.426;9.206;2022-07-30T14:55:56;34.30;40.90
32394;DHT22;18853;45.426;9.206;2022-07-30T14:58:22;34.40;39.60
32394;DHT22;18853;45.426;9.206;2022-07-30T15:00:48;34.40;39.30
32394;DHT22;18853;45.426;9.206;2022-07-30T15:03:14;34.50;39.00
32394;DHT22;18853;45.426;9.206;2022-07-30T15:05:39;34.60;39.70
32394;DHT22;18853;45.426;9.206;2022-07-30T15:08:05;34.70;39.20
32394;DHT22;18853;45.426;9.206;2022-07-30T15:10:31;34.70;38.60
32394;DHT22;18853;45.426;9.206;2022-07-30T15:12:57;34.90;38.60
32394;DHT22;18853;45.426;9.206;2022-07-30T15:15:23;35.00;38.90
32394;DHT22;18853;45.426;9.206;2022-07-30T15:17:48;35.20;38.60
32394;DHT22;18853;45.426;9.206;2022-07-30T15:20:14;35.20;38.20
32394;DHT22;18853;45.426;9.206;2022-07-30T15:22:40;35.10;37.20
32394;DHT22;18853;45.426;9.206;2022-07-30T15:25:06;35.10;36.90
32394;DHT22;18853;45.426;9.206;2022-07-30T15:27:32;35.10;36.60
32394;DHT22;18853;45.426;9.206;2022-07-30T15:29:57;35.10;36.40
32394;DHT22;18853;45.426;9.206;2022-07-30T15:32:23;35.10;36.10
32394;DHT22;18853;45.426;9.206;2022-07-30T15:34:49;35.20;36.10
32394;DHT22;18853;45.426;9.206;2022-07-30T15:37:14;35.20;36.20
32394;DHT22;18853;45.426;9.206;2022-07-30T15:39:40;35.30;36.40
32394;DHT22;18853;45.426;9.206;2022-07-30T15:42:06;35.40;36.90
32394;DHT22;18853;45.426;9.206;2022-07-30T15:44:32;35.30;36.40
32394;DHT22;18853;45.426;9.206;2022-07-30T15:46:58;35.20;36.70
32394;DHT22;18853;45.426;9.206;2022-07-30T15:49:24;35.20;36.50
32394;DHT22;18853;45.426;9.206;2022-07-30T15:51:50;35.30;36.40
32394;DHT22;18853;45.426;9.206;2022-07-30T15:54:17;35.40;34.50
32394;DHT22;18853;45.426;9.206;2022-07-30T15:56:44;35.50;32.80
32394;DHT22;18853;45.426;9.206;2022-07-30T15:59:11;35.70;32.00
32394;DHT22;18853;45.426;9.206;2022-07-30T16:01:37;35.70;32.20
32394;DHT22;18853;45.426;9.206;2022-07-30T16:04:03;35.80;32.50
32394;DHT22;18853;45.426;9.206;2022-07-30T16:06:29;36.00;33.10
32394;DHT22;18853;45.426;9.206;2022-07-30T16:08:56;36.00;33.40
32394;DHT22;18853;45.426;9.206;2022-07-30T16:11:22;36.10;33.00
32394;DHT22;18853;45.426;9.206;2022-07-30T16:13:47;36.10;33.30
32394;DHT22;18853;45.426;9.206;2022-07-30T16:16:14;36.20;33.60
32394;DHT22;18853;45.426;9.206;2022-07-30T16:18:39;36.30;33.30
32394;DHT22;18853;45.426;9.206;2022-07-30T16:21:05;36.20;31.80
32394;DHT22;18853;45.426;9.206;2022-07-30T16:23:31;36.10;31.30
32394;DHT22;18853;45.426;9.206;2022-07-30T16:25:56;36.10;30.80